Time;durP1;ratioP1;P1;durP2;ratioP2;P2;SDS_P1;SDS_P2;PMS_P1;PMS_P2;Temp;Humidity;BMP_temperature;BMP_pressure;BME280_temperature;BME280_humidity;BME280_pressure;Samples;Min_cycle;Max_cycle;Signal;HPM_P1;HPM_P2
2021/09/11 00:01:37;;;;;;;19.30;16.08;;;19.50;99.90;;;;;;4961206;28;20029;-88
2021/09/11 00:04:03;;;;;;;19.08;15.88;;;19.50;99.90;;;;;;4993112;28;20037;-88
2021/09/11 00:06:29;;;;;;;18.58;15.93;;;19.50;99.90;;;;;;5009344;28;20030;-88
2021/09/11 00:08:54;;;;;;;23.33;17.35;;;19.50;99.90;;;;;;4976303;28;20407;-88
2021/09/11 00:11:20;;;;;;;18.88;16.10;;;19.50;99.90;;;;;;4958003;28;20460;-87
2021/09/11 00:13:46;;;;;;;19.35;16.05;;;19.40;99.90;;;;;;5009900;28;20019;-88
2021/09/11 00:16:11;;;;;;;19.25;17.13;;;19.40;99.90;;;;;;5009659;28;20046;-88
2021/09/11 00:18:37;;;;;;;22.95;16.35;;;19.40;99.90;;;;;;4993213;28;20448;-88
2021/09/11 00:21:02;;;;;;;19.92;15.45;;;19.40;99.90;;;;;;4977407;28;20502;-87
2021/09/11 00:23:34;;;;;;;17.20;14.55;;;19.40;99.90;;;;;;4980320;28;20487;-88
2021/09/11 00:26:00;;;;;;;19.55;15.60;;;19.40;99.90;;;;;;4993509;28;20129;-88
2021/09/11 00:28:26;;;;;;;18.25;14.93;;;19.40;99.90;;;;;;4961565;28;20451;-87
2021/09/11 00:30:52;;;;;;;19.77;15.45;;;19.40;99.90;;;;;;4990206;28;20053;-87
2021/09/11 00:33:18;;;;;;;17.77;15.27;;;19.40;99.90;;;;;;4996339;28;20057;-88
2021/09/11 00:35:43;;;;;;;21.33;17.42;;;19.30;99.90;;;;;;4990007;28;20577;-87
2021/09/11 00:38:09;;;;;;;20.25;16.30;;;19.30;99.90;;;;;;4960510;28;20089;-87
2021/09/11 00:40:35;;;;;;;21.58;15.85;;;19.30;99.90;;;;;;4991300;28;20022;-87
2021/09/11 00:43:42;;;;;;;19.52;16.23;;;19.20;99.90;;;;;;4996452;28;20028;-87
2021/09/11 00:46:08;;;;;;;20.08;15.75;;;19.20;99.90;;;;;;4976795;28;20057;-87
2021/09/11 00:48:34;;;;;;;22.38;16.55;;;19.10;99.90;;;;;;4976426;28;20396;-88
2021/09/11 00:50:59;;;;;;;20.63;16.55;;;19.10;99.90;;;;;;4992616;28;20813;-88
2021/09/11 00:53:25;;;;;;;20.65;15.00;;;19.10;99.90;;;;;;4984763;28;20149;-88
2021/09/11 00:55:51;;;;;;;19.95;15.52;;;19.10;99.90;;;;;;4993565;28;20096;-88
2021/09/11 00:58:17;;;;;;;23.88;16.25;;;19.10;99.90;;;;;;4996144;28;20502;-88
2021/09/11 01:00:58;;;;;;;20.08;15.65;;;19.10;99.90;;;;;;4982479;28;20030;-87
2021/09/11 01:03:29;;;;;;;19.05;14.63;;;19.10;99.90;;;;;;4979314;28;20038;-88
2021/09/11 01:05:55;;;;;;;17.98;14.23;;;19.10;99.90;;;;;;4976500;28;20038;-87
2021/09/11 01:08:28;;;;;;;17.00;13.90;;;19.10;99.90;;;;;;4996299;28;20100;-87
2021/09/11 01:10:53;;;;;;;21.10;14.05;;;19.10;99.90;;;;;;4980596;28;20057;-88
2021/09/11 01:13:41;;;;;;;20.02;14.40;;;19.00;99.90;;;;;;4964119;28;20064;-88
2021/09/11 01:16:07;;;;;;;19.17;13.77;;;19.00;99.90;;;;;;4953536;28;20027;-87
2021/09/11 01:18:34;;;;;;;19.98;13.80;;;19.00;99.90;;;;;;4937692;29;20130;-87
2021/09/11 01:21:00;;;;;;;19.10;13.93;;;18.90;99.90;;;;;;4923782;29;20039;-87
2021/09/11 01:23:27;;;;;;;18.95;14.20;;;18.90;99.90;;;;;;4940205;29;20027;-87
2021/09/11 01:25:52;;;;;;;16.85;13.35;;;18.90;99.90;;;;;;4941745;29;20088;-88
2021/09/11 01:28:18;;;;;;;20.50;14.07;;;18.90;99.90;;;;;;4951760;28;20425;-88
2021/09/11 01:30:45;;;;;;;18.30;13.85;;;18.90;99.90;;;;;;4938046;29;20027;-88
2021/09/11 01:33:11;;;;;;;18.33;13.90;;;18.90;99.90;;;;;;4934788;29;20536;-87
2021/09/11 01:35:36;;;;;;;18.52;13.82;;;18.80;99.90;;;;;;4942041;29;20032;-87
2021/09/11 01:38:03;;;;;;;20.35;14.75;;;18.80;99.90;;;;;;4940097;29;20031;-87
2021/09/11 01:40:28;;;;;;;19.38;13.73;;;18.80;99.90;;;;;;4939105;29;20032;-87
2021/09/11 01:42:54;;;;;;;20.23;14.63;;;18.70;99.90;;;;;;4957210;29;20509;-87
2021/09/11 01:45:21;;;;;;;20.63;14.35;;;18.70;99.90;;;;;;4955016;28;20143;-87
2021/09/11 01:47:50;;;;;;;17.67;13.75;;;18.70;99.90;;;;;;4932128;29;20028;-87
2021/09/11 01:50:21;;;;;;;19.85;14.25;;;18.70;99.90;;;;;;4953164;29;20487;-87
2021/09/11 01:52:48;;;;;;;17.48;13.75;;;18.70;99.90;;;;;;4969306;28;20073;-88
2021/09/11 01:55:15;;;;;;;24.17;16.20;;;18.70;99.90;;;;;;5016268;28;20034;-86
2021/09/11 01:57:42;;;;;;;19.52;14.90;;;18.60;99.80;;;;;;4999758;28;20459;-88
2021/09/11 02:00:13;;;;;;;20.70;14.77;;;18.60;99.90;;;;;;4999986;28;20494;-88
2021/09/11 02:02:39;;;;;;;20.45;14.95;;;18.50;99.90;;;;;;4987110;28;20111;-88
2021/09/11 02:05:06;;;;;;;19.27;14.80;;;18.50;99.80;;;;;;4983745;28;20032;-87
2021/09/11 02:07:33;;;;;;;21.73;15.43;;;18.50;99.90;;;;;;5000228;28;20045;-88
2021/09/11 02:09:58;;;;;;;21.75;14.55;;;18.40;99.90;;;;;;4983747;28;20445;-88
2021/09/11 02:13:03;;;;;;;22.30;14.98;;;18.40;99.70;;;;;;4999604;28;20105;-88
2021/09/11 02:15:29;;;;;;;19.50;14.20;;;18.40;99.80;;;;;;5000694;28;20033;-87
2021/09/11 02:17:55;;;;;;;16.83;13.63;;;18.30;99.90;;;;;;5017158;28;20033;-88
2021/09/11 02:20:21;;;;;;;18.02;13.40;;;18.30;99.90;;;;;;5008091;28;20125;-87
2021/09/11 02:22:47;;;;;;;24.10;13.73;;;18.20;99.90;;;;;;4995947;28;20061;-87
2021/09/11 02:25:13;;;;;;;18.92;14.50;;;18.20;99.80;;;;;;4973436;28;20026;-87
2021/09/11 02:27:40;;;;;;;23.08;13.77;;;18.20;99.90;;;;;;4997961;28;20491;-87
2021/09/11 02:30:06;;;;;;;17.90;13.15;;;18.10;99.90;;;;;;5004059;28;20109;-86
2021/09/11 02:32:32;;;;;;;19.45;13.05;;;18.10;99.80;;;;;;4999549;28;20021;-87
2021/09/11 02:34:58;;;;;;;15.90;11.98;;;18.00;99.80;;;;;;4996864;28;20030;-87
2021/09/11 02:37:23;;;;;;;16.38;12.82;;;18.00;99.90;;;;;;4959377;28;20036;-87
2021/09/11 02:39:49;;;;;;;17.40;13.05;;;18.00;99.90;;;;;;4959822;28;20112;-87
2021/09/11 02:42:15;;;;;;;17.08;13.00;;;18.00;99.90;;;;;;4999386;28;20026;-87
2021/09/11 02:44:40;;;;;;;18.75;12.65;;;18.00;99.90;;;;;;4983053;28;20037;-87
2021/09/11 02:47:06;;;;;;;17.98;13.05;;;17.90;99.90;;;;;;4974037;28;20026;-88
2021/09/11 02:49:32;;;;;;;19.67;12.90;;;18.00;99.90;;;;;;4982843;28;20022;-88
2021/09/11 02:52:04;;;;;;;17.50;12.40;;;17.90;99.90;;;;;;4966045;28;20030;-88
2021/09/11 02:54:29;;;;;;;22.33;14.13;;;17.90;99.90;;;;;;4968684;28;20038;-87
2021/09/11 02:56:55;;;;;;;17.42;12.55;;;17.80;99.90;;;;;;4979788;28;20030;-88
2021/09/11 02:59:20;;;;;;;23.13;13.65;;;17.80;99.90;;;;;;4981194;28;20041;-87
2021/09/11 03:01:46;;;;;;;16.65;11.85;;;17.80;99.90;;;;;;4980864;28;20489;-87
2021/09/11 03:04:12;;;;;;;17.90;13.23;;;17.80;99.80;;;;;;4981538;28;20026;-87
2021/09/11 03:06:38;;;;;;;15.88;12.48;;;17.80;99.90;;;;;;4965501;28;20475;-87
2021/09/11 03:09:03;;;;;;;16.25;12.38;;;17.80;99.70;;;;;;4965607;28;20018;-87
2021/09/11 03:11:29;;;;;;;18.85;12.98;;;17.80;99.90;;;;;;4981462;28;20476;-87
2021/09/11 03:13:55;;;;;;;16.45;12.23;;;17.80;99.80;;;;;;4965316;28;20033;-87
2021/09/11 03:16:20;;;;;;;18.10;12.50;;;17.70;99.80;;;;;;4981607;28;20030;-88
2021/09/11 03:18:46;;;;;;;17.75;12.63;;;17.70;99.80;;;;;;4981307;28;20471;-87
2021/09/11 03:21:11;;;;;;;19.15;13.85;;;17.70;99.80;;;;;;4997256;28;20033;-87
2021/09/11 03:23:37;;;;;;;19.23;12.65;;;17.70;99.90;;;;;;4981305;28;20017;-87
2021/09/11 03:26:03;;;;;;;22.65;13.60;;;17.70;99.80;;;;;;4990283;28;20467;-87
2021/09/11 03:28:28;;;;;;;24.23;13.82;;;17.60;99.70;;;;;;4997065;28;20026;-87
2021/09/11 03:30:54;;;;;;;21.88;14.63;;;17.60;99.70;;;;;;4993920;28;20118;-87
2021/09/11 03:33:20;;;;;;;21.42;14.45;;;17.60;99.70;;;;;;4963916;28;20096;-87
2021/09/11 03:36:04;;;;;;;22.33;14.73;;;17.60;99.60;;;;;;4995777;28;20116;-87
2021/09/11 03:38:30;;;;;;;22.13;15.00;;;17.50;99.30;;;;;;4980357;28;20032;-88
2021/09/11 03:40:55;;;;;;;24.95;16.77;;;17.50;99.70;;;;;;4993967;28;20121;-87
2021/09/11 03:43:21;;;;;;;21.25;15.65;;;17.50;99.70;;;;;;4955529;28;20057;-87
2021/09/11 03:45:47;;;;;;;22.42;16.67;;;17.40;99.80;;;;;;5003936;28;20124;-87
2021/09/11 03:48:13;;;;;;;23.10;16.10;;;17.40;99.70;;;;;;4996734;28;20374;-87
2021/09/11 03:50:38;;;;;;;21.25;15.15;;;17.40;99.80;;;;;;4961433;28;20081;-87
2021/09/11 03:53:04;;;;;;;20.58;15.68;;;17.40;99.90;;;;;;4973930;28;20435;-87
2021/09/11 03:55:29;;;;;;;26.95;16.63;;;17.40;99.90;;;;;;4964403;28;20480;-87
2021/09/11 03:57:55;;;;;;;25.67;16.67;;;17.40;99.90;;;;;;4964425;28;20025;-86
2021/09/11 04:00:21;;;;;;;24.63;16.65;;;17.40;99.90;;;;;;4980526;28;20030;-87
2021/09/11 04:02:46;;;;;;;24.15;17.13;;;17.30;99.90;;;;;;4996183;28;20053;-87
2021/09/11 04:05:12;;;;;;;25.20;16.42;;;17.30;99.90;;;;;;4982608;28;20030;-86
2021/09/11 04:07:37;;;;;;;24.33;17.73;;;17.30;99.90;;;;;;4980192;28;20022;-87
2021/09/11 04:10:03;;;;;;;27.20;16.88;;;17.30;99.90;;;;;;4980328;28;20071;-87
2021/09/11 04:12:29;;;;;;;23.17;16.63;;;17.30;99.90;;;;;;4979924;28;20437;-87
2021/09/11 04:14:55;;;;;;;23.33;16.40;;;17.30;99.90;;;;;;4976913;28;20125;-87
2021/09/11 04:17:20;;;;;;;24.17;16.45;;;17.30;99.90;;;;;;4991143;28;20034;-87
2021/09/11 04:19:46;;;;;;;24.83;16.17;;;17.30;99.90;;;;;;5013825;28;20096;-87
2021/09/11 04:22:12;;;;;;;24.45;16.58;;;17.20;99.90;;;;;;4992529;28;20053;-85
2021/09/11 04:24:37;;;;;;;22.42;16.13;;;17.20;99.80;;;;;;4977034;28;20031;-87
2021/09/11 04:27:03;;;;;;;24.15;16.23;;;17.20;99.90;;;;;;4976638;28;20023;-87
2021/09/11 04:29:29;;;;;;;22.00;16.30;;;17.20;99.90;;;;;;4970956;28;20037;-87
2021/09/11 04:31:55;;;;;;;22.73;16.65;;;17.20;99.90;;;;;;4983052;28;20423;-87
2021/09/11 04:34:20;;;;;;;26.77;18.08;;;17.10;99.90;;;;;;4991007;28;20030;-87
2021/09/11 04:36:46;;;;;;;22.50;16.10;;;17.10;99.90;;;;;;5044516;23;20060;-82
2021/09/11 04:39:11;;;;;;;22.05;15.88;;;17.10;99.90;;;;;;4997173;28;20108;-83
2021/09/11 04:41:37;;;;;;;21.10;16.10;;;17.20;99.90;;;;;;4996730;28;20022;-82
2021/09/11 04:44:03;;;;;;;24.65;16.45;;;17.10;99.90;;;;;;4980615;28;20497;-84
2021/09/11 04:46:29;;;;;;;24.48;17.02;;;17.20;99.90;;;;;;4996729;28;20084;-83
2021/09/11 04:48:54;;;;;;;24.90;15.68;;;17.10;99.90;;;;;;4997195;28;20409;-89
2021/09/11 04:51:21;;;;;;;22.00;16.08;;;17.20;99.90;;;;;;5014413;28;20025;-83
2021/09/11 04:53:48;;;;;;;21.63;15.85;;;17.20;99.90;;;;;;5014151;28;20014;-83
2021/09/11 04:56:13;;;;;;;25.15;15.95;;;17.10;99.90;;;;;;5019113;28;20429;-83
2021/09/11 04:58:39;;;;;;;23.48;16.08;;;17.10;99.90;;;;;;4994995;28;20026;-84
2021/09/11 05:01:05;;;;;;;20.58;14.63;;;17.10;99.90;;;;;;5013191;28;20615;-83
2021/09/11 05:03:31;;;;;;;20.73;15.13;;;17.10;99.90;;;;;;5000895;28;20036;-84
2021/09/11 05:05:56;;;;;;;21.83;15.55;;;17.10;99.90;;;;;;4994334;28;20053;-88
2021/09/11 05:08:22;;;;;;;18.75;14.15;;;17.10;99.90;;;;;;5021980;28;20030;-85
2021/09/11 05:10:48;;;;;;;24.58;15.40;;;17.10;99.90;;;;;;5014121;28;20468;-83
2021/09/11 05:13:14;;;;;;;20.05;14.60;;;17.10;99.90;;;;;;5004314;28;20022;-85
2021/09/11 05:15:40;;;;;;;20.50;14.18;;;17.10;99.90;;;;;;5008489;28;20032;-84
2021/09/11 05:18:06;;;;;;;20.30;14.60;;;17.10;99.90;;;;;;4976473;28;20356;-84
2021/09/11 05:20:32;;;;;;;21.70;13.35;;;17.10;99.90;;;;;;5006293;28;20033;-84
2021/09/11 05:22:58;;;;;;;21.13;13.60;;;17.10;99.90;;;;;;5012412;28;20033;-87
2021/09/11 05:25:24;;;;;;;19.13;14.23;;;17.10;99.90;;;;;;5013722;28;20366;-84
2021/09/11 05:27:49;;;;;;;17.67;13.43;;;17.10;99.90;;;;;;4995518;28;20022;-84
2021/09/11 05:30:18;;;;;;;18.48;13.30;;;17.10;99.90;;;;;;4996336;28;20103;-84
2021/09/11 05:32:43;;;;;;;17.77;12.55;;;17.10;99.90;;;;;;4995256;28;20022;-83
2021/09/11 05:35:09;;;;;;;18.40;13.20;;;17.20;99.90;;;;;;4983133;28;20080;-84
2021/09/11 05:37:35;;;;;;;18.85;13.65;;;17.20;99.90;;;;;;5027169;28;20103;-83
2021/09/11 05:40:00;;;;;;;20.08;13.85;;;17.20;99.90;;;;;;5016324;28;20029;-85
2021/09/11 05:42:26;;;;;;;17.63;12.70;;;17.20;99.90;;;;;;4999062;28;20112;-83
2021/09/11 05:44:52;;;;;;;17.25;12.60;;;17.20;99.90;;;;;;5015351;28;20046;-84
2021/09/11 05:47:17;;;;;;;19.45;13.23;;;17.20;99.90;;;;;;5015420;28;20021;-83
2021/09/11 05:49:43;;;;;;;21.42;13.38;;;17.20;99.90;;;;;;5032229;28;20042;-84
2021/09/11 05:52:08;;;;;;;20.70;13.80;;;17.20;99.90;;;;;;4999281;28;20032;-83
2021/09/11 05:54:34;;;;;;;18.58;12.98;;;17.10;99.90;;;;;;5003000;28;20041;-83
2021/09/11 05:57:00;;;;;;;17.77;12.75;;;17.20;99.90;;;;;;5014035;28;20036;-84
2021/09/11 05:59:25;;;;;;;17.48;12.88;;;17.20;99.90;;;;;;5015697;28;20339;-85
2021/09/11 06:01:51;;;;;;;21.67;13.85;;;17.10;99.90;;;;;;5015645;28;20029;-84
2021/09/11 06:04:17;;;;;;;17.30;12.57;;;17.10;99.90;;;;;;5015361;28;20084;-84
2021/09/11 06:06:42;;;;;;;18.77;12.10;;;17.10;99.90;;;;;;5015221;28;20441;-84
2021/09/11 06:09:08;;;;;;;19.00;13.30;;;17.10;99.90;;;;;;5032777;28;20142;-84
2021/09/11 06:11:34;;;;;;;17.92;12.68;;;17.10;99.90;;;;;;4999461;28;20025;-84
2021/09/11 06:13:59;;;;;;;15.93;11.15;;;17.10;99.90;;;;;;5032017;28;20105;-84
2021/09/11 06:16:25;;;;;;;21.05;11.98;;;17.10;99.90;;;;;;5028430;28;20389;-84
2021/09/11 06:18:51;;;;;;;19.13;12.05;;;17.20;99.90;;;;;;4983192;28;20410;-83
2021/09/11 06:21:18;;;;;;;15.30;11.40;;;17.20;99.90;;;;;;4999273;28;20373;-84
2021/09/11 06:23:43;;;;;;;17.02;11.25;;;17.20;99.90;;;;;;5003908;28;20110;-83
2021/09/11 06:26:09;;;;;;;21.42;12.43;;;17.20;99.90;;;;;;5015081;28;20464;-83
2021/09/11 06:28:35;;;;;;;17.58;12.07;;;17.20;99.90;;;;;;5020073;28;20413;-83
2021/09/11 06:31:00;;;;;;;17.70;11.57;;;17.20;99.90;;;;;;5008210;28;20029;-83
2021/09/11 06:33:26;;;;;;;17.90;11.40;;;17.20;99.90;;;;;;5043407;28;20010;-87
2021/09/11 06:35:51;;;;;;;17.58;12.00;;;17.30;99.90;;;;;;5024264;28;20012;-91
2021/09/11 06:38:17;;;;;;;17.70;12.18;;;17.20;99.90;;;;;;5050822;28;20066;-87
2021/09/11 06:40:44;;;;;;;21.10;11.85;;;17.30;99.90;;;;;;5037104;28;20018;-82
2021/09/11 06:43:09;;;;;;;16.17;11.50;;;17.30;99.90;;;;;;5006546;28;20086;-89
2021/09/11 06:45:35;;;;;;;17.35;11.65;;;17.30;99.90;;;;;;5010040;28;20050;-90
2021/09/11 06:48:01;;;;;;;16.33;11.70;;;17.30;99.90;;;;;;5025372;28;20022;-86
2021/09/11 06:50:27;;;;;;;18.05;12.32;;;17.30;99.90;;;;;;4969404;28;20038;-84
2021/09/11 06:52:53;;;;;;;18.75;11.55;;;17.30;99.90;;;;;;4992926;28;20022;-83
2021/09/11 06:55:19;;;;;;;17.80;12.10;;;17.40;99.90;;;;;;4998802;28;20030;-83
2021/09/11 06:57:49;;;;;;;18.95;12.07;;;17.40;99.90;;;;;;4979954;28;20053;-83
2021/09/11 07:00:14;;;;;;;20.40;11.73;;;17.40;99.90;;;;;;4994994;28;20112;-85
2021/09/11 07:02:40;;;;;;;15.90;12.18;;;17.40;99.90;;;;;;4995224;28;20057;-85
2021/09/11 07:05:06;;;;;;;17.30;12.27;;;17.40;99.90;;;;;;4995059;28;20466;-85
2021/09/11 07:07:32;;;;;;;16.08;11.73;;;17.40;99.90;;;;;;4978917;28;20022;-83
2021/09/11 07:09:58;;;;;;;16.27;11.35;;;17.40;99.90;;;;;;4981218;28;20054;-83
2021/09/11 07:12:24;;;;;;;17.58;11.85;;;17.40;99.90;;;;;;5010965;28;20018;-84
2021/09/11 07:14:50;;;;;;;15.85;11.10;;;17.40;99.90;;;;;;4982777;28;20423;-83
2021/09/11 07:17:15;;;;;;;19.48;11.75;;;17.50;99.90;;;;;;4992992;28;20018;-82
2021/09/11 07:19:41;;;;;;;18.52;11.90;;;17.50;99.90;;;;;;4959210;28;20051;-83
2021/09/11 07:22:07;;;;;;;18.15;12.10;;;17.50;99.90;;;;;;4990021;28;20022;-83
2021/09/11 07:24:32;;;;;;;18.92;11.93;;;17.50;99.90;;;;;;4994375;28;20059;-83
2021/09/11 07:26:58;;;;;;;18.55;11.82;;;17.50;99.90;;;;;;4994543;28;20422;-82
2021/09/11 07:29:24;;;;;;;17.13;12.38;;;17.50;99.90;;;;;;4958729;28;20027;-82
2021/09/11 07:31:49;;;;;;;18.13;12.10;;;17.60;99.90;;;;;;4970300;28;20050;-83
2021/09/11 07:34:15;;;;;;;19.85;11.73;;;17.60;99.90;;;;;;4994166;28;20018;-84
2021/09/11 07:36:41;;;;;;;22.35;14.02;;;17.60;99.90;;;;;;5007840;28;20454;-82
2021/09/11 07:39:06;;;;;;;17.13;12.15;;;17.60;99.90;;;;;;4997687;28;20018;-83
2021/09/11 07:41:33;;;;;;;16.67;11.00;;;17.60;99.90;;;;;;5000865;28;20381;-84
2021/09/11 07:43:59;;;;;;;19.95;13.18;;;17.70;99.90;;;;;;5017049;28;20110;-83
2021/09/11 07:46:25;;;;;;;18.85;12.90;;;17.70;99.90;;;;;;5000291;28;20057;-83
2021/09/11 07:48:51;;;;;;;19.55;12.52;;;17.70;99.90;;;;;;5000540;28;20465;-83
2021/09/11 07:51:16;;;;;;;18.38;12.73;;;17.70;99.90;;;;;;5016633;28;20022;-83
2021/09/11 07:53:42;;;;;;;20.45;13.15;;;17.70;99.90;;;;;;5025245;28;20093;-83
2021/09/11 07:56:08;;;;;;;20.83;14.00;;;17.80;99.90;;;;;;5012262;28;20056;-83
2021/09/11 07:58:34;;;;;;;19.17;13.55;;;17.80;99.90;;;;;;4984782;28;20105;-82
2021/09/11 08:01:00;;;;;;;18.75;14.18;;;17.80;99.90;;;;;;4978403;28;20060;-82
2021/09/11 08:03:27;;;;;;;19.58;14.35;;;17.80;99.90;;;;;;5014673;28;20467;-83
2021/09/11 08:05:54;;;;;;;19.00;14.05;;;17.80;99.90;;;;;;5012351;28;20018;-83
2021/09/11 08:08:20;;;;;;;19.55;13.48;;;17.90;99.90;;;;;;5008900;28;20032;-83
2021/09/11 08:10:46;;;;;;;19.83;14.57;;;17.90;99.90;;;;;;5033454;28;20104;-86
2021/09/11 08:13:15;;;;;;;18.23;14.68;;;18.00;99.90;;;;;;5015541;28;20076;-84
2021/09/11 08:15:42;;;;;;;18.52;14.60;;;18.00;99.90;;;;;;5030373;28;20433;-83
2021/09/11 08:18:07;;;;;;;25.40;17.13;;;18.10;99.90;;;;;;5000716;28;20075;-83
2021/09/11 08:20:35;;;;;;;24.60;17.20;;;18.10;99.90;;;;;;5016161;28;20396;-82
2021/09/11 08:23:02;;;;;;;33.40;16.92;;;18.10;99.90;;;;;;5016091;28;20014;-82
2021/09/11 08:25:28;;;;;;;21.35;16.77;;;18.10;99.90;;;;;;4999757;28;20040;-83
2021/09/11 08:27:54;;;;;;;20.73;14.65;;;18.20;99.90;;;;;;4999158;28;20037;-84
2021/09/11 08:30:20;;;;;;;18.63;15.73;;;18.20;99.90;;;;;;4998197;28;20034;-85
2021/09/11 08:32:45;;;;;;;17.65;15.73;;;18.20;99.90;;;;;;5003888;28;20098;-86
2021/09/11 08:35:13;;;;;;;23.50;16.45;;;18.20;99.90;;;;;;4993397;28;20030;-84
2021/09/11 08:37:39;;;;;;;19.58;16.67;;;18.20;99.90;;;;;;4997342;28;20042;-85
2021/09/11 08:40:05;;;;;;;19.20;15.40;;;18.30;99.90;;;;;;4997352;28;20025;-84
2021/09/11 08:42:33;;;;;;;18.88;14.15;;;18.30;99.90;;;;;;5032315;28;20079;-83
2021/09/11 08:44:59;;;;;;;22.67;17.35;;;18.30;99.90;;;;;;5005635;28;20458;-83
2021/09/11 08:47:25;;;;;;;20.00;15.98;;;18.30;99.90;;;;;;5015117;28;20037;-86
2021/09/11 08:49:50;;;;;;;17.85;15.15;;;18.30;99.90;;;;;;4996329;28;20022;-83
2021/09/11 08:52:16;;;;;;;22.20;15.82;;;18.30;99.90;;;;;;5010894;28;20037;-88
2021/09/11 08:54:42;;;;;;;17.38;14.85;;;18.40;99.90;;;;;;4999916;28;20028;-85
2021/09/11 08:57:20;;;;;;;21.50;15.27;;;18.40;99.90;;;;;;4983835;28;20083;-84
2021/09/11 08:59:46;;;;;;;20.80;15.43;;;18.40;99.90;;;;;;5016384;28;20025;-83
2021/09/11 09:02:11;;;;;;;22.17;15.85;;;18.50;99.90;;;;;;5024437;28;20026;-84
2021/09/11 09:04:55;;;;;;;19.80;15.20;;;18.50;99.90;;;;;;5025889;28;20038;-84
2021/09/11 09:07:35;;;;;;;20.90;16.40;;;18.60;99.90;;;;;;5028573;28;20026;-84
2021/09/11 09:10:13;;;;;;;19.27;15.43;;;18.60;99.90;;;;;;4994742;28;20385;-84
2021/09/11 09:12:46;;;;;;;18.70;15.15;;;18.60;99.90;;;;;;5004427;28;20080;-87
2021/09/11 09:15:14;;;;;;;23.05;16.23;;;18.70;99.90;;;;;;4990910;28;20080;-87
2021/09/11 09:17:47;;;;;;;20.17;16.25;;;18.70;99.90;;;;;;5005473;28;20068;-85
2021/09/11 09:20:18;;;;;;;20.52;17.75;;;18.70;99.90;;;;;;5015832;28;20041;-87
2021/09/11 09:22:47;;;;;;;18.80;15.75;;;18.80;99.90;;;;;;5013531;28;20018;-86
2021/09/11 09:25:46;;;;;;;18.33;16.23;;;18.80;99.90;;;;;;5016052;28;20024;-86
2021/09/11 09:28:15;;;;;;;21.25;17.23;;;18.80;99.90;;;;;;5022819;28;20022;-86
2021/09/11 09:30:47;;;;;;;20.05;16.83;;;18.80;99.90;;;;;;5027979;28;20064;-86
2021/09/11 09:33:22;;;;;;;20.38;17.48;;;18.80;99.90;;;;;;5032503;28;20021;-85
2021/09/11 09:35:49;;;;;;;19.25;15.95;;;18.80;99.90;;;;;;5033294;28;20123;-86
2021/09/11 09:38:15;;;;;;;17.92;15.63;;;18.90;99.90;;;;;;5010479;28;20045;-85
2021/09/11 09:40:48;;;;;;;19.77;16.90;;;18.90;99.90;;;;;;5013788;28;20112;-87
2021/09/11 09:43:29;;;;;;;23.88;19.35;;;18.90;99.60;;;;;;5002156;28;20045;-86
2021/09/11 09:46:09;;;;;;;24.27;20.23;;;18.90;99.40;;;;;;5012858;28;20104;-86
2021/09/11 09:48:42;;;;;;;20.67;18.48;;;18.90;99.60;;;;;;5029145;28;20014;-87
2021/09/11 09:51:12;;;;;;;22.45;16.92;;;18.90;99.70;;;;;;5008105;28;20110;-84
2021/09/11 09:53:42;;;;;;;21.87;19.07;;;18.90;99.70;;;;;;5008130;28;20463;-83
2021/09/11 09:56:08;;;;;;;25.38;19.52;;;18.90;99.80;;;;;;5012049;28;20275;-85
2021/09/11 09:58:35;;;;;;;22.15;19.05;;;18.90;99.60;;;;;;5013374;28;20489;-86
2021/09/11 10:01:01;;;;;;;23.05;20.55;;;18.90;99.70;;;;;;4994652;28;20033;-88
2021/09/11 10:03:27;;;;;;;28.75;20.95;;;18.90;99.30;;;;;;5012649;28;20013;-88
2021/09/11 10:06:10;;;;;;;26.75;20.83;;;18.90;99.50;;;;;;5017830;28;20088;-89
2021/09/11 10:08:43;;;;;;;23.40;19.08;;;18.90;99.40;;;;;;5018678;28;20103;-88
2021/09/11 10:11:10;;;;;;;26.17;21.60;;;19.00;99.60;;;;;;5020173;28;20042;-89
2021/09/11 10:13:37;;;;;;;26.40;21.25;;;19.00;99.30;;;;;;5033148;28;20045;-91
2021/09/11 10:16:09;;;;;;;25.67;21.15;;;19.00;99.50;;;;;;5024778;28;20014;-88
2021/09/11 10:18:38;;;;;;;26.85;21.00;;;19.00;99.10;;;;;;5024508;28;20033;-93
2021/09/11 10:21:40;;;;;;;26.42;21.20;;;19.00;99.40;;;;;;5041401;28;20013;-89
2021/09/11 10:24:15;;;;;;;26.08;20.20;;;19.00;99.30;;;;;;5033115;28;20021;-89
2021/09/11 10:26:48;;;;;;;24.48;20.13;;;19.00;99.40;;;;;;5032989;28;20061;-90
2021/09/11 10:29:32;;;;;;;24.60;20.15;;;19.00;99.30;;;;;;5052158;28;20010;-93
2021/09/11 10:32:22;;;;;;;25.23;20.45;;;19.10;99.40;;;;;;5028914;28;20062;-87
2021/09/11 10:35:19;;;;;;;25.00;20.95;;;19.10;99.30;;;;;;5009526;28;20038;-88
2021/09/11 10:38:01;;;;;;;23.77;20.65;;;19.20;99.30;;;;;;5014959;28;20145;-88
2021/09/11 10:40:46;;;;;;;25.95;20.55;;;19.20;99.50;;;;;;5015465;28;20032;-88
2021/09/11 10:43:19;;;;;;;28.73;21.33;;;19.20;99.30;;;;;;5017450;28;20080;-88
2021/09/11 10:45:53;;;;;;;26.00;21.50;;;19.20;99.10;;;;;;5003957;28;20026;-90
2021/09/11 10:48:48;;;;;;;23.65;20.83;;;19.20;99.00;;;;;;5016450;28;20076;-88
2021/09/11 10:52:04;;;;;;;27.58;21.63;;;19.30;99.10;;;;;;5009878;28;20025;-88
2021/09/11 10:54:36;;;;;;;26.10;19.85;;;19.20;98.80;;;;;;5003836;28;20026;-88
2021/09/11 10:57:03;;;;;;;25.15;22.05;;;19.30;98.60;;;;;;5014160;28;20061;-88
2021/09/11 10:59:39;;;;;;;24.77;20.42;;;19.30;98.80;;;;;;5031077;28;20018;-87
2021/09/11 11:02:24;;;;;;;26.08;21.45;;;19.30;99.00;;;;;;4998497;28;20028;-88
2021/09/11 11:04:49;;;;;;;25.25;22.13;;;19.40;98.60;;;;;;5009969;28;20037;-87
2021/09/11 11:07:18;;;;;;;28.67;22.00;;;19.40;99.20;;;;;;5014978;28;20129;-87
2021/09/11 11:09:59;;;;;;;26.35;21.65;;;19.50;99.40;;;;;;5015041;28;20037;-88
2021/09/11 11:12:35;;;;;;;25.30;20.25;;;19.50;98.90;;;;;;5018589;28;20022;-86
2021/09/11 11:15:07;;;;;;;29.27;22.48;;;19.50;99.10;;;;;;4996299;28;20077;-87
2021/09/11 11:17:38;;;;;;;27.23;22.05;;;19.60;99.00;;;;;;5010330;28;20022;-87
2021/09/11 11:20:05;;;;;;;25.08;21.52;;;19.60;98.80;;;;;;5012540;28;20121;-86
2021/09/11 11:22:40;;;;;;;23.42;20.15;;;19.60;99.10;;;;;;5015402;28;20026;-85
2021/09/11 11:25:12;;;;;;;30.63;22.55;;;19.70;98.90;;;;;;5015781;28;20030;-85
2021/09/11 11:27:38;;;;;;;29.05;21.25;;;19.70;98.90;;;;;;4996821;28;20036;-87
2021/09/11 11:30:07;;;;;;;23.80;21.25;;;19.70;99.00;;;;;;5008245;28;20037;-88
2021/09/11 11:32:35;;;;;;;24.77;20.88;;;19.70;98.80;;;;;;5014242;28;20085;-84
2021/09/11 11:35:01;;;;;;;26.48;21.52;;;19.80;98.90;;;;;;5014458;28;20037;-84
2021/09/11 11:37:36;;;;;;;22.42;19.92;;;19.80;99.40;;;;;;4982153;28;20056;-86
2021/09/11 11:40:14;;;;;;;25.58;21.88;;;19.80;99.90;;;;;;5014145;28;20021;-86
2021/09/11 11:42:42;;;;;;;23.08;20.67;;;19.90;99.90;;;;;;5013462;28;20477;-86
2021/09/11 11:45:13;;;;;;;24.55;20.02;;;20.00;99.90;;;;;;4994942;28;20026;-86
2021/09/11 11:47:39;;;;;;;21.90;19.48;;;20.10;99.90;;;;;;4989656;28;20525;-85
2021/09/11 11:50:22;;;;;;;22.52;19.45;;;20.20;99.90;;;;;;5001076;28;20050;-86
2021/09/11 11:53:08;;;;;;;25.80;22.33;;;20.20;99.90;;;;;;5014444;28;20090;-87
2021/09/11 11:55:39;;;;;;;25.52;21.95;;;20.20;99.00;;;;;;5020451;28;20014;-87
2021/09/11 11:58:21;;;;;;;25.02;22.35;;;20.20;99.80;;;;;;5016892;28;20050;-90
2021/09/11 12:00:54;;;;;;;23.45;20.77;;;20.40;99.90;;;;;;5020684;28;20009;-90
2021/09/11 12:03:33;;;;;;;23.08;20.42;;;20.40;99.90;;;;;;5015471;28;20048;-92
2021/09/11 12:06:04;;;;;;;24.45;20.98;;;20.50;99.90;;;;;;5014845;28;20025;-91
2021/09/11 12:08:36;;;;;;;23.60;18.47;;;20.60;99.30;;;;;;5015025;28;20018;-92
2021/09/11 12:11:05;;;;;;;22.52;19.13;;;20.60;99.20;;;;;;5015114;28;20261;-92
2021/09/11 12:13:33;;;;;;;23.13;19.15;;;20.70;99.80;;;;;;5015026;28;20045;-91
2021/09/11 12:16:02;;;;;;;23.60;19.60;;;20.70;99.20;;;;;;5015792;28;20454;-89
2021/09/11 12:18:33;;;;;;;21.27;18.80;;;20.60;98.90;;;;;;5016076;28;20022;-89
2021/09/11 12:21:07;;;;;;;23.38;19.27;;;20.60;98.70;;;;;;5015157;28;20022;-88
2021/09/11 12:23:34;;;;;;;16.48;14.70;;;20.60;98.90;;;;;;5014083;28;20025;-93
2021/09/11 12:26:05;;;;;;;10.68;8.25;;;20.50;99.00;;;;;;5015651;28;20033;-93
2021/09/11 12:28:36;;;;;;;6.80;5.70;;;20.50;99.80;;;;;;5015824;28;20029;-92
2021/09/11 12:31:07;;;;;;;7.28;6.03;;;20.40;99.70;;;;;;5015096;28;20160;-91
2021/09/11 12:33:48;;;;;;;7.47;6.32;;;20.30;99.40;;;;;;5014146;28;20014;-89
2021/09/11 12:36:29;;;;;;;8.50;6.03;;;20.20;99.80;;;;;;5015979;28;20115;-89